PWSweather.com
Personal Weather Stations
Station Observations
SEVANL01
SevillaES 41004

SevillaES 41004

Lat: 37.383633, Lon: -5.985787

Elevation: 19.685

Station Type: Davis Vantage Pro2

Latest ConditionsUpdated 6:40:01 PM GMT+01:01 Friday, Oct 31, 2014
Currently Today's Max Today's Min Today's Average
Temperature 78.4°F25.8°C 80.1°F26.7°C 60.3°F15.7°C 69.3°F20.7°C
Dew Point 52.1°F11.2°C 54.4°F12.4°C 46.7°F8.2°C 51.3°F10.7°C
Winds Calm Calm 4.0 mph NE6.4 kmh NE - 1.8 mph 2.9 kmh
Wind Gusts -- 10.0 mph16.1 kmh - -
Humidity 40% 71% 38% 54%
Pressure 30.08 in1018.6 mb 30.13 in1020.3 mb 30.07 in1018.3 mb -
Hour Temp Dew Point Humidity Winds Wind Gusts Pressure Precip Precip Rate Daily Precip Total
06:40 PM 78.4°F25.8°C 52.1°F11.2°C 40% Calm Calm -- 30.08 in1018.6 mb 0.00 in0.0 mm 0.00 in/hr0.0 mm/hr 0.00 in0.0 mm
06:20 PM 79.3°F26.3°C 51.5°F10.8°C 38% Calm Calm 3.0 mph4.8 kmh 30.08 in1018.6 mb 0.00 in0.0 mm 0.00 in/hr0.0 mm/hr 0.00 in0.0 mm
06:00 PM 80.1°F26.7°C 52.2°F11.2°C 38% Calm Calm 1.0 mph1.6 kmh 30.07 in1018.3 mb 0.00 in0.0 mm 0.00 in/hr0.0 mm/hr 0.00 in0.0 mm
05:40 PM 80.1°F26.7°C 52.2°F11.2°C 38% Calm Calm 1.0 mph1.6 kmh 30.07 in1018.3 mb 0.00 in0.0 mm 0.00 in/hr0.0 mm/hr 0.00 in0.0 mm
05:20 PM 79.9°F26.6°C 52.7°F11.5°C 39% 1.0 mph NW1.6 kmh NW 3.0 mph4.8 kmh 30.07 in1018.3 mb 0.00 in0.0 mm 0.00 in/hr0.0 mm/hr 0.00 in0.0 mm
05:00 PM 79.7°F26.5°C 53.2°F11.8°C 40% 2.0 mph NW3.2 kmh NW 5.0 mph8.0 kmh 30.07 in1018.3 mb 0.00 in0.0 mm 0.00 in/hr0.0 mm/hr 0.00 in0.0 mm
04:40 PM 79.9°F26.6°C 53.4°F11.9°C 40% 1.0 mph NW1.6 kmh NW 5.0 mph8.0 kmh 30.07 in1018.3 mb 0.00 in0.0 mm 0.00 in/hr0.0 mm/hr 0.00 in0.0 mm
04:20 PM 79.9°F26.6°C 53.4°F11.9°C 40% 1.0 mph NW1.6 kmh NW 3.0 mph4.8 kmh 30.07 in1018.3 mb 0.00 in0.0 mm 0.00 in/hr0.0 mm/hr 0.00 in0.0 mm
04:00 PM 80.1°F26.7°C 53.6°F12.0°C 40% 1.0 mph NE1.6 kmh NE 3.0 mph4.8 kmh 30.07 in1018.3 mb 0.00 in0.0 mm 0.00 in/hr0.0 mm/hr 0.00 in0.0 mm
03:40 PM 79.9°F26.6°C 54.1°F12.3°C 41% 1.0 mph NNW1.6 kmh NNW 5.0 mph8.0 kmh 30.07 in1018.3 mb 0.00 in0.0 mm 0.00 in/hr0.0 mm/hr 0.00 in0.0 mm
03:20 PM 79.3°F26.3°C 54.3°F12.4°C 42% 2.0 mph NW3.2 kmh NW 4.0 mph6.4 kmh 30.07 in1018.3 mb 0.00 in0.0 mm 0.00 in/hr0.0 mm/hr 0.00 in0.0 mm
03:00 PM 79.2°F26.2°C 54.1°F12.3°C 42% 2.0 mph NW3.2 kmh NW 5.0 mph8.0 kmh 30.08 in1018.6 mb 0.00 in0.0 mm 0.00 in/hr0.0 mm/hr 0.00 in0.0 mm
02:40 PM 78.8°F26.0°C 54.4°F12.4°C 43% 3.0 mph WNW4.8 kmh WNW 6.0 mph9.7 kmh 30.09 in1019.0 mb 0.00 in0.0 mm 0.00 in/hr0.0 mm/hr 0.00 in0.0 mm
02:20 PM 78.1°F25.6°C 54.4°F12.4°C 44% 3.0 mph NW4.8 kmh NW 7.0 mph11.3 kmh 30.09 in1019.0 mb 0.00 in0.0 mm 0.00 in/hr0.0 mm/hr 0.00 in0.0 mm
02:00 PM 77.5°F25.3°C 53.3°F11.8°C 43% 3.0 mph NW4.8 kmh NW 9.0 mph14.5 kmh 30.10 in1019.3 mb 0.00 in0.0 mm 0.00 in/hr0.0 mm/hr 0.00 in0.0 mm
01:40 PM 77.7°F25.4°C 54.1°F12.3°C 44% 3.0 mph NW4.8 kmh NW 8.0 mph12.9 kmh 30.10 in1019.3 mb 0.00 in0.0 mm 0.00 in/hr0.0 mm/hr 0.00 in0.0 mm
01:20 PM 77.5°F25.3°C 53.3°F11.8°C 43% Calm Calm 6.0 mph9.7 kmh 30.10 in1019.3 mb 0.00 in0.0 mm 0.00 in/hr0.0 mm/hr 0.00 in0.0 mm
01:00 PM 76.8°F24.9°C 52.0°F11.1°C 42% Calm Calm 4.0 mph6.4 kmh 30.11 in1019.6 mb 0.00 in0.0 mm 0.00 in/hr0.0 mm/hr 0.00 in0.0 mm
12:40 PM 76.8°F24.9°C 51.3°F10.7°C 41% 1.0 mph N1.6 kmh N 5.0 mph8.0 kmh 30.11 in1019.6 mb 0.00 in0.0 mm 0.00 in/hr0.0 mm/hr 0.00 in0.0 mm
12:20 PM 75.2°F24.0°C 53.6°F12.0°C 47% 2.0 mph N3.2 kmh N 6.0 mph9.7 kmh 30.13 in1020.3 mb 0.00 in0.0 mm 0.00 in/hr0.0 mm/hr 0.00 in0.0 mm
12:00 PM 74.1°F23.4°C 54.3°F12.4°C 50% Calm Calm 3.0 mph4.8 kmh 30.12 in1020.0 mb 0.00 in0.0 mm 0.00 in/hr0.0 mm/hr 0.00 in0.0 mm
11:40 AM 72.0°F22.2°C 53.4°F11.9°C 52% 2.0 mph NE3.2 kmh NE 6.0 mph9.7 kmh 30.13 in1020.3 mb 0.00 in0.0 mm 0.00 in/hr0.0 mm/hr 0.00 in0.0 mm
11:20 AM 70.7°F21.5°C 53.2°F11.8°C 54% 3.0 mph NNE4.8 kmh NNE 6.0 mph9.7 kmh 30.13 in1020.3 mb 0.00 in0.0 mm 0.00 in/hr0.0 mm/hr 0.00 in0.0 mm
11:00 AM 69.1°F20.6°C 52.7°F11.5°C 56% 3.0 mph N4.8 kmh N 7.0 mph11.3 kmh 30.13 in1020.3 mb 0.00 in0.0 mm 0.00 in/hr0.0 mm/hr 0.00 in0.0 mm
10:40 AM 67.5°F19.7°C 52.2°F11.2°C 58% 3.0 mph N4.8 kmh N 7.0 mph11.3 kmh 30.13 in1020.3 mb 0.00 in0.0 mm 0.00 in/hr0.0 mm/hr 0.00 in0.0 mm
10:20 AM 65.8°F18.8°C 51.6°F10.9°C 60% 4.0 mph N6.4 kmh N 7.0 mph11.3 kmh 30.12 in1020.0 mb 0.00 in0.0 mm 0.00 in/hr0.0 mm/hr 0.00 in0.0 mm
10:00 AM 64.8°F18.2°C 51.9°F11.1°C 63% 2.0 mph N3.2 kmh N 6.0 mph9.7 kmh 30.12 in1020.0 mb 0.00 in0.0 mm 0.00 in/hr0.0 mm/hr 0.00 in0.0 mm
09:40 AM 63.1°F17.3°C 51.6°F10.9°C 66% 3.0 mph NNE4.8 kmh NNE 8.0 mph12.9 kmh 30.11 in1019.6 mb 0.00 in0.0 mm 0.00 in/hr0.0 mm/hr 0.00 in0.0 mm
09:20 AM 61.9°F16.6°C 50.8°F10.4°C 67% 4.0 mph NE6.4 kmh NE 10.0 mph16.1 kmh 30.12 in1020.0 mb 0.00 in0.0 mm 0.00 in/hr0.0 mm/hr 0.00 in0.0 mm
09:00 AM 61.3°F16.3°C 50.7°F10.4°C 68% 3.0 mph NNE4.8 kmh NNE 8.0 mph12.9 kmh 30.11 in1019.6 mb 0.00 in0.0 mm 0.00 in/hr0.0 mm/hr 0.00 in0.0 mm
08:40 AM 61.3°F16.3°C 51.1°F10.6°C 69% 4.0 mph NNE6.4 kmh NNE 8.0 mph12.9 kmh 30.11 in1019.6 mb 0.00 in0.0 mm 0.00 in/hr0.0 mm/hr 0.00 in0.0 mm
08:20 AM 61.2°F16.2°C 50.9°F10.5°C 69% 3.0 mph NNE4.8 kmh NNE 8.0 mph12.9 kmh 30.10 in1019.3 mb 0.00 in0.0 mm 0.00 in/hr0.0 mm/hr 0.00 in0.0 mm
08:00 AM 61.2°F16.2°C 50.9°F10.5°C 69% 3.0 mph NW4.8 kmh NW 6.0 mph9.7 kmh 30.09 in1019.0 mb 0.00 in0.0 mm 0.00 in/hr0.0 mm/hr 0.00 in0.0 mm
07:40 AM 60.8°F16.0°C 51.0°F10.6°C 70% 2.0 mph NNW3.2 kmh NNW 5.0 mph8.0 kmh 30.08 in1018.6 mb 0.00 in0.0 mm 0.00 in/hr0.0 mm/hr 0.00 in0.0 mm
07:20 AM 61.3°F16.3°C 51.1°F10.6°C 69% 3.0 mph NNW4.8 kmh NNW 5.0 mph8.0 kmh 30.08 in1018.6 mb 0.00 in0.0 mm 0.00 in/hr0.0 mm/hr 0.00 in0.0 mm
07:00 AM 61.5°F16.4°C 50.9°F10.5°C 68% 2.0 mph N3.2 kmh N 5.0 mph8.0 kmh 30.07 in1018.3 mb 0.00 in0.0 mm 0.00 in/hr0.0 mm/hr 0.00 in0.0 mm
06:40 AM 61.2°F16.2°C 50.9°F10.5°C 69% 2.0 mph N3.2 kmh N 5.0 mph8.0 kmh 30.07 in1018.3 mb 0.00 in0.0 mm 0.00 in/hr0.0 mm/hr 0.00 in0.0 mm
06:20 AM 60.6°F15.9°C 50.8°F10.4°C 70% 2.0 mph N3.2 kmh N 5.0 mph8.0 kmh 30.07 in1018.3 mb 0.00 in0.0 mm 0.00 in/hr0.0 mm/hr 0.00 in0.0 mm
06:00 AM 60.3°F15.7°C 50.8°F10.4°C 71% 3.0 mph NNW4.8 kmh NNW 5.0 mph8.0 kmh 30.07 in1018.3 mb 0.00 in0.0 mm 0.00 in/hr0.0 mm/hr 0.00 in0.0 mm
05:40 AM 60.8°F16.0°C 51.0°F10.6°C 70% 2.0 mph NW3.2 kmh NW 5.0 mph8.0 kmh 30.07 in1018.3 mb 0.00 in0.0 mm 0.00 in/hr0.0 mm/hr 0.00 in0.0 mm
05:20 AM 61.2°F16.2°C 50.9°F10.5°C 69% 2.0 mph NW3.2 kmh NW 4.0 mph6.4 kmh 30.07 in1018.3 mb 0.00 in0.0 mm 0.00 in/hr0.0 mm/hr 0.00 in0.0 mm
05:00 AM 61.9°F16.6°C 50.8°F10.4°C 67% 1.0 mph NW1.6 kmh NW 4.0 mph6.4 kmh 30.07 in1018.3 mb 0.00 in0.0 mm 0.00 in/hr0.0 mm/hr 0.00 in0.0 mm
04:40 AM 62.1°F16.7°C 51.0°F10.6°C 67% 1.0 mph NW1.6 kmh NW 4.0 mph6.4 kmh 30.07 in1018.3 mb 0.00 in0.0 mm 0.00 in/hr0.0 mm/hr 0.00 in0.0 mm
04:20 AM 62.8°F17.1°C 50.8°F10.4°C 65% 1.0 mph NNW1.6 kmh NNW 5.0 mph8.0 kmh 30.07 in1018.3 mb 0.00 in0.0 mm 0.00 in/hr0.0 mm/hr 0.00 in0.0 mm
04:00 AM 62.8°F17.1°C 50.0°F10.0°C 63% 1.0 mph NNW1.6 kmh NNW 4.0 mph6.4 kmh 30.07 in1018.3 mb 0.00 in0.0 mm 0.00 in/hr0.0 mm/hr 0.00 in0.0 mm
03:40 AM 63.1°F17.3°C 50.3°F10.2°C 63% 4.0 mph N6.4 kmh N 6.0 mph9.7 kmh 30.08 in1018.6 mb 0.00 in0.0 mm 0.00 in/hr0.0 mm/hr 0.00 in0.0 mm
03:20 AM 63.9°F17.7°C 49.7°F9.8°C 60% 2.0 mph N3.2 kmh N 5.0 mph8.0 kmh 30.09 in1019.0 mb 0.00 in0.0 mm 0.00 in/hr0.0 mm/hr 0.00 in0.0 mm
03:00 AM 64.2°F17.9°C 49.1°F9.5°C 58% 2.0 mph NNE3.2 kmh NNE 4.0 mph6.4 kmh 30.09 in1019.0 mb 0.00 in0.0 mm 0.00 in/hr0.0 mm/hr 0.00 in0.0 mm
02:40 AM 64.6°F18.1°C 49.0°F9.4°C 57% 1.0 mph N1.6 kmh N 5.0 mph8.0 kmh 30.09 in1019.0 mb 0.00 in0.0 mm 0.00 in/hr0.0 mm/hr 0.00 in0.0 mm
02:20 AM 64.9°F18.3°C 48.4°F9.1°C 55% 1.0 mph N1.6 kmh N 4.0 mph6.4 kmh 30.09 in1019.0 mb 0.00 in0.0 mm 0.00 in/hr0.0 mm/hr 0.00 in0.0 mm
02:00 AM 65.3°F18.5°C 47.7°F8.7°C 53% 2.0 mph N3.2 kmh N 6.0 mph9.7 kmh 30.09 in1019.0 mb 0.00 in0.0 mm 0.00 in/hr0.0 mm/hr 0.00 in0.0 mm
01:40 AM 65.5°F18.6°C 47.4°F8.6°C 52% 1.0 mph NNE1.6 kmh NNE 4.0 mph6.4 kmh 30.09 in1019.0 mb 0.00 in0.0 mm 0.00 in/hr0.0 mm/hr 0.00 in0.0 mm
01:20 AM 66.4°F19.1°C 47.2°F8.4°C 50% 1.0 mph NE1.6 kmh NE 3.0 mph4.8 kmh 30.09 in1019.0 mb 0.00 in0.0 mm 0.00 in/hr0.0 mm/hr 0.00 in0.0 mm
01:00 AM 66.6°F19.2°C 47.3°F8.5°C 50% 2.0 mph NE3.2 kmh NE 5.0 mph8.0 kmh 30.09 in1019.0 mb 0.00 in0.0 mm 0.00 in/hr0.0 mm/hr 0.00 in0.0 mm
12:40 AM 67.1°F19.5°C 46.7°F8.2°C 48% 1.0 mph NE1.6 kmh NE 4.0 mph6.4 kmh 30.10 in1019.3 mb 0.00 in0.0 mm 0.00 in/hr0.0 mm/hr 0.00 in0.0 mm
12:20 AM 67.6°F19.8°C 46.7°F8.2°C 47% 2.0 mph NNE3.2 kmh NNE 5.0 mph8.0 kmh 30.10 in1019.3 mb 0.00 in0.0 mm 0.00 in/hr0.0 mm/hr 0.00 in0.0 mm
12:00 AM 67.8°F19.9°C 46.8°F8.2°C 47% Calm Calm 1.0 mph1.6 kmh 30.10 in1019.3 mb 0.00 in0.0 mm 0.00 in/hr0.0 mm/hr 0.00 in0.0 mm